sensor_id;sensor_type;location;lat;lon;timestamp;P1;durP1;ratioP1;P2;durP2;ratioP2
41897;SDS011;27576;53.366;-1.498;2024-01-07T00:01:30;26.48;;;13.75;;
41897;SDS011;27576;53.366;-1.498;2024-01-07T00:03:56;24.95;;;12.93;;
41897;SDS011;27576;53.366;-1.498;2024-01-07T00:06:21;22.20;;;13.45;;
41897;SDS011;27576;53.366;-1.498;2024-01-07T00:08:47;20.85;;;12.40;;
41897;SDS011;27576;53.366;-1.498;2024-01-07T00:11:12;19.90;;;13.18;;
41897;SDS011;27576;53.366;-1.498;2024-01-07T00:13:38;21.88;;;13.65;;
41897;SDS011;27576;53.366;-1.498;2024-01-07T00:16:03;23.67;;;13.27;;
41897;SDS011;27576;53.366;-1.498;2024-01-07T00:18:29;20.23;;;13.10;;
41897;SDS011;27576;53.366;-1.498;2024-01-07T00:20:54;24.42;;;14.00;;
41897;SDS011;27576;53.366;-1.498;2024-01-07T00:23:20;25.40;;;14.63;;
41897;SDS011;27576;53.366;-1.498;2024-01-07T00:25:46;25.45;;;15.25;;
41897;SDS011;27576;53.366;-1.498;2024-01-07T00:28:12;20.80;;;15.02;;
41897;SDS011;27576;53.366;-1.498;2024-01-07T00:30:37;24.48;;;16.20;;
41897;SDS011;27576;53.366;-1.498;2024-01-07T00:33:03;23.42;;;15.43;;
41897;SDS011;27576;53.366;-1.498;2024-01-07T00:35:28;20.95;;;13.77;;
41897;SDS011;27576;53.366;-1.498;2024-01-07T00:37:54;22.42;;;14.98;;
41897;SDS011;27576;53.366;-1.498;2024-01-07T00:40:21;29.10;;;16.27;;
41897;SDS011;27576;53.366;-1.498;2024-01-07T00:42:47;22.80;;;15.88;;
41897;SDS011;27576;53.366;-1.498;2024-01-07T00:45:13;26.55;;;16.98;;
41897;SDS011;27576;53.366;-1.498;2024-01-07T00:47:38;27.05;;;16.15;;
41897;SDS011;27576;53.366;-1.498;2024-01-07T00:50:03;23.70;;;15.25;;
41897;SDS011;27576;53.366;-1.498;2024-01-07T00:52:29;25.52;;;16.20;;
41897;SDS011;27576;53.366;-1.498;2024-01-07T00:54:54;25.15;;;17.05;;
41897;SDS011;27576;53.366;-1.498;2024-01-07T00:57:20;24.55;;;17.38;;
41897;SDS011;27576;53.366;-1.498;2024-01-07T00:59:45;26.38;;;18.40;;
41897;SDS011;27576;53.366;-1.498;2024-01-07T01:02:11;29.58;;;19.55;;
41897;SDS011;27576;53.366;-1.498;2024-01-07T01:04:38;33.42;;;21.85;;
41897;SDS011;27576;53.366;-1.498;2024-01-07T01:07:04;33.70;;;21.75;;
41897;SDS011;27576;53.366;-1.498;2024-01-07T01:09:30;31.60;;;20.00;;
41897;SDS011;27576;53.366;-1.498;2024-01-07T01:11:55;27.02;;;21.20;;
41897;SDS011;27576;53.366;-1.498;2024-01-07T01:14:21;27.85;;;19.02;;
41897;SDS011;27576;53.366;-1.498;2024-01-07T01:16:46;27.35;;;17.52;;
41897;SDS011;27576;53.366;-1.498;2024-01-07T01:19:12;21.85;;;15.20;;
41897;SDS011;27576;53.366;-1.498;2024-01-07T01:21:37;24.17;;;14.25;;
41897;SDS011;27576;53.366;-1.498;2024-01-07T01:24:03;17.77;;;12.60;;
41897;SDS011;27576;53.366;-1.498;2024-01-07T01:26:28;16.13;;;11.10;;
41897;SDS011;27576;53.366;-1.498;2024-01-07T01:28:54;18.33;;;11.32;;
41897;SDS011;27576;53.366;-1.498;2024-01-07T01:31:19;15.50;;;11.10;;
41897;SDS011;27576;53.366;-1.498;2024-01-07T01:33:44;18.20;;;11.23;;
41897;SDS011;27576;53.366;-1.498;2024-01-07T01:36:10;20.17;;;11.63;;
41897;SDS011;27576;53.366;-1.498;2024-01-07T01:38:35;17.08;;;11.80;;
41897;SDS011;27576;53.366;-1.498;2024-01-07T01:41:01;13.00;;;10.30;;
41897;SDS011;27576;53.366;-1.498;2024-01-07T01:43:27;14.93;;;10.40;;
41897;SDS011;27576;53.366;-1.498;2024-01-07T01:45:53;16.77;;;10.35;;
41897;SDS011;27576;53.366;-1.498;2024-01-07T01:48:20;18.02;;;11.05;;
41897;SDS011;27576;53.366;-1.498;2024-01-07T01:50:46;17.52;;;10.02;;
41897;SDS011;27576;53.366;-1.498;2024-01-07T01:53:13;14.27;;;9.90;;
41897;SDS011;27576;53.366;-1.498;2024-01-07T01:55:39;11.15;;;7.95;;
41897;SDS011;27576;53.366;-1.498;2024-01-07T01:58:05;13.80;;;8.45;;
41897;SDS011;27576;53.366;-1.498;2024-01-07T02:00:32;14.02;;;8.32;;
41897;SDS011;27576;53.366;-1.498;2024-01-07T02:02:57;15.88;;;8.43;;
41897;SDS011;27576;53.366;-1.498;2024-01-07T02:05:23;10.57;;;7.65;;
41897;SDS011;27576;53.366;-1.498;2024-01-07T02:07:48;13.02;;;7.82;;
41897;SDS011;27576;53.366;-1.498;2024-01-07T02:10:14;10.50;;;7.07;;
41897;SDS011;27576;53.366;-1.498;2024-01-07T02:12:43;11.40;;;7.50;;
41897;SDS011;27576;53.366;-1.498;2024-01-07T02:15:08;10.88;;;6.65;;
41897;SDS011;27576;53.366;-1.498;2024-01-07T02:17:34;13.60;;;7.47;;
41897;SDS011;27576;53.366;-1.498;2024-01-07T02:19:59;18.38;;;8.25;;
41897;SDS011;27576;53.366;-1.498;2024-01-07T02:22:25;15.82;;;8.43;;
41897;SDS011;27576;53.366;-1.498;2024-01-07T02:24:50;16.75;;;10.32;;
41897;SDS011;27576;53.366;-1.498;2024-01-07T02:27:16;22.13;;;11.55;;
41897;SDS011;27576;53.366;-1.498;2024-01-07T02:29:41;26.40;;;14.48;;
41897;SDS011;27576;53.366;-1.498;2024-01-07T02:32:07;23.48;;;16.23;;
41897;SDS011;27576;53.366;-1.498;2024-01-07T02:34:32;28.40;;;16.00;;
41897;SDS011;27576;53.366;-1.498;2024-01-07T02:36:57;27.73;;;16.88;;
41897;SDS011;27576;53.366;-1.498;2024-01-07T02:39:23;30.73;;;18.25;;
41897;SDS011;27576;53.366;-1.498;2024-01-07T02:41:48;31.17;;;18.75;;
41897;SDS011;27576;53.366;-1.498;2024-01-07T02:44:14;28.13;;;17.08;;
41897;SDS011;27576;53.366;-1.498;2024-01-07T02:46:40;33.90;;;21.13;;
41897;SDS011;27576;53.366;-1.498;2024-01-07T02:49:05;33.80;;;20.15;;
41897;SDS011;27576;53.366;-1.498;2024-01-07T02:51:30;24.05;;;16.98;;
41897;SDS011;27576;53.366;-1.498;2024-01-07T02:53:56;29.27;;;19.55;;
41897;SDS011;27576;53.366;-1.498;2024-01-07T02:56:21;30.15;;;17.73;;
41897;SDS011;27576;53.366;-1.498;2024-01-07T02:58:47;27.35;;;18.23;;
41897;SDS011;27576;53.366;-1.498;2024-01-07T03:01:12;25.83;;;17.52;;
41897;SDS011;27576;53.366;-1.498;2024-01-07T03:03:38;22.85;;;16.02;;
41897;SDS011;27576;53.366;-1.498;2024-01-07T03:06:03;26.70;;;16.95;;
41897;SDS011;27576;53.366;-1.498;2024-01-07T03:08:29;27.10;;;18.48;;
41897;SDS011;27576;53.366;-1.498;2024-01-07T03:10:55;26.83;;;17.95;;
41897;SDS011;27576;53.366;-1.498;2024-01-07T03:13:20;25.30;;;16.27;;
41897;SDS011;27576;53.366;-1.498;2024-01-07T03:15:45;26.02;;;16.80;;
41897;SDS011;27576;53.366;-1.498;2024-01-07T03:18:11;24.23;;;13.85;;
41897;SDS011;27576;53.366;-1.498;2024-01-07T03:20:36;21.90;;;12.52;;
41897;SDS011;27576;53.366;-1.498;2024-01-07T03:23:02;23.85;;;12.85;;
41897;SDS011;27576;53.366;-1.498;2024-01-07T03:25:27;20.63;;;11.77;;
41897;SDS011;27576;53.366;-1.498;2024-01-07T03:27:52;16.75;;;10.95;;
41897;SDS011;27576;53.366;-1.498;2024-01-07T03:30:18;15.30;;;10.05;;
41897;SDS011;27576;53.366;-1.498;2024-01-07T03:32:46;16.42;;;9.80;;
41897;SDS011;27576;53.366;-1.498;2024-01-07T03:35:11;21.80;;;11.85;;
41897;SDS011;27576;53.366;-1.498;2024-01-07T03:37:37;17.15;;;11.40;;
41897;SDS011;27576;53.366;-1.498;2024-01-07T03:40:09;22.05;;;12.40;;
41897;SDS011;27576;53.366;-1.498;2024-01-07T03:42:36;25.30;;;12.43;;
41897;SDS011;27576;53.366;-1.498;2024-01-07T03:45:02;24.17;;;13.88;;
41897;SDS011;27576;53.366;-1.498;2024-01-07T03:47:28;25.25;;;12.82;;
41897;SDS011;27576;53.366;-1.498;2024-01-07T03:49:53;16.90;;;11.00;;
41897;SDS011;27576;53.366;-1.498;2024-01-07T03:52:18;17.73;;;11.55;;
41897;SDS011;27576;53.366;-1.498;2024-01-07T03:54:44;23.15;;;13.23;;
41897;SDS011;27576;53.366;-1.498;2024-01-07T03:57:09;20.90;;;12.85;;
41897;SDS011;27576;53.366;-1.498;2024-01-07T03:59:35;19.30;;;12.25;;
41897;SDS011;27576;53.366;-1.498;2024-01-07T04:02:00;21.20;;;12.77;;
41897;SDS011;27576;53.366;-1.498;2024-01-07T04:04:25;23.42;;;12.63;;
41897;SDS011;27576;53.366;-1.498;2024-01-07T04:06:51;22.45;;;12.68;;
41897;SDS011;27576;53.366;-1.498;2024-01-07T04:09:19;22.50;;;12.60;;
41897;SDS011;27576;53.366;-1.498;2024-01-07T04:11:45;19.17;;;11.63;;
41897;SDS011;27576;53.366;-1.498;2024-01-07T04:14:13;18.65;;;10.23;;
41897;SDS011;27576;53.366;-1.498;2024-01-07T04:16:40;20.17;;;10.20;;
41897;SDS011;27576;53.366;-1.498;2024-01-07T04:19:05;24.95;;;11.45;;
41897;SDS011;27576;53.366;-1.498;2024-01-07T04:21:31;19.23;;;10.35;;
41897;SDS011;27576;53.366;-1.498;2024-01-07T04:23:56;17.98;;;11.00;;
41897;SDS011;27576;53.366;-1.498;2024-01-07T04:26:22;20.67;;;10.80;;
41897;SDS011;27576;53.366;-1.498;2024-01-07T04:28:47;21.77;;;11.90;;
41897;SDS011;27576;53.366;-1.498;2024-01-07T04:31:15;17.23;;;10.50;;
41897;SDS011;27576;53.366;-1.498;2024-01-07T04:33:41;22.70;;;11.05;;
41897;SDS011;27576;53.366;-1.498;2024-01-07T04:36:07;20.25;;;11.50;;
41897;SDS011;27576;53.366;-1.498;2024-01-07T04:38:32;20.48;;;12.70;;
41897;SDS011;27576;53.366;-1.498;2024-01-07T04:40:57;21.02;;;12.05;;
41897;SDS011;27576;53.366;-1.498;2024-01-07T04:43:23;22.20;;;12.23;;
41897;SDS011;27576;53.366;-1.498;2024-01-07T04:45:48;28.65;;;13.48;;
41897;SDS011;27576;53.366;-1.498;2024-01-07T04:48:14;21.38;;;12.55;;
41897;SDS011;27576;53.366;-1.498;2024-01-07T04:50:40;21.42;;;13.00;;
41897;SDS011;27576;53.366;-1.498;2024-01-07T04:53:08;19.30;;;11.85;;
41897;SDS011;27576;53.366;-1.498;2024-01-07T04:55:34;19.98;;;12.20;;
41897;SDS011;27576;53.366;-1.498;2024-01-07T04:58:01;27.17;;;11.85;;
41897;SDS011;27576;53.366;-1.498;2024-01-07T05:00:26;20.15;;;11.57;;
41897;SDS011;27576;53.366;-1.498;2024-01-07T05:02:52;20.33;;;11.82;;
41897;SDS011;27576;53.366;-1.498;2024-01-07T05:05:17;13.93;;;9.32;;
41897;SDS011;27576;53.366;-1.498;2024-01-07T05:07:43;16.20;;;8.25;;
41897;SDS011;27576;53.366;-1.498;2024-01-07T05:10:08;18.60;;;8.43;;
41897;SDS011;27576;53.366;-1.498;2024-01-07T05:12:34;16.33;;;8.60;;
41897;SDS011;27576;53.366;-1.498;2024-01-07T05:14:59;12.60;;;6.50;;
41897;SDS011;27576;53.366;-1.498;2024-01-07T05:17:24;12.80;;;5.57;;
41897;SDS011;27576;53.366;-1.498;2024-01-07T05:19:50;14.07;;;6.68;;
41897;SDS011;27576;53.366;-1.498;2024-01-07T05:22:16;15.98;;;5.90;;
41897;SDS011;27576;53.366;-1.498;2024-01-07T05:24:41;16.80;;;6.60;;
41897;SDS011;27576;53.366;-1.498;2024-01-07T05:27:07;13.52;;;5.85;;
41897;SDS011;27576;53.366;-1.498;2024-01-07T05:29:32;12.02;;;5.65;;
41897;SDS011;27576;53.366;-1.498;2024-01-07T05:31:58;15.45;;;5.72;;
41897;SDS011;27576;53.366;-1.498;2024-01-07T05:34:25;10.77;;;5.40;;
41897;SDS011;27576;53.366;-1.498;2024-01-07T05:36:51;12.18;;;5.28;;
41897;SDS011;27576;53.366;-1.498;2024-01-07T05:39:19;14.57;;;5.40;;
41897;SDS011;27576;53.366;-1.498;2024-01-07T05:41:45;8.18;;;4.40;;
41897;SDS011;27576;53.366;-1.498;2024-01-07T05:44:11;14.52;;;5.03;;
41897;SDS011;27576;53.366;-1.498;2024-01-07T05:46:40;9.05;;;5.20;;
41897;SDS011;27576;53.366;-1.498;2024-01-07T05:49:06;10.20;;;6.07;;
41897;SDS011;27576;53.366;-1.498;2024-01-07T05:51:31;11.45;;;5.65;;
41897;SDS011;27576;53.366;-1.498;2024-01-07T05:53:57;11.07;;;5.63;;
41897;SDS011;27576;53.366;-1.498;2024-01-07T05:56:22;9.85;;;5.95;;
41897;SDS011;27576;53.366;-1.498;2024-01-07T05:58:48;20.88;;;5.90;;
41897;SDS011;27576;53.366;-1.498;2024-01-07T06:01:18;10.05;;;5.47;;
41897;SDS011;27576;53.366;-1.498;2024-01-07T06:03:44;13.85;;;5.70;;
41897;SDS011;27576;53.366;-1.498;2024-01-07T06:06:11;11.57;;;5.50;;
41897;SDS011;27576;53.366;-1.498;2024-01-07T06:08:38;14.95;;;5.10;;
41897;SDS011;27576;53.366;-1.498;2024-01-07T06:11:03;14.05;;;5.50;;
41897;SDS011;27576;53.366;-1.498;2024-01-07T06:13:29;11.50;;;5.35;;
41897;SDS011;27576;53.366;-1.498;2024-01-07T06:15:54;9.43;;;5.40;;
41897;SDS011;27576;53.366;-1.498;2024-01-07T06:18:19;14.18;;;6.40;;
41897;SDS011;27576;53.366;-1.498;2024-01-07T06:20:45;12.40;;;5.80;;
41897;SDS011;27576;53.366;-1.498;2024-01-07T06:23:10;10.20;;;5.80;;
41897;SDS011;27576;53.366;-1.498;2024-01-07T06:25:36;13.02;;;5.80;;
41897;SDS011;27576;53.366;-1.498;2024-01-07T06:28:01;11.95;;;6.40;;
41897;SDS011;27576;53.366;-1.498;2024-01-07T06:30:27;11.05;;;6.10;;
41897;SDS011;27576;53.366;-1.498;2024-01-07T06:32:52;13.05;;;6.03;;
41897;SDS011;27576;53.366;-1.498;2024-01-07T06:35:18;13.88;;;5.88;;
41897;SDS011;27576;53.366;-1.498;2024-01-07T06:37:43;14.88;;;6.35;;
41897;SDS011;27576;53.366;-1.498;2024-01-07T06:40:09;12.23;;;5.97;;
41897;SDS011;27576;53.366;-1.498;2024-01-07T06:42:36;14.30;;;6.88;;
41897;SDS011;27576;53.366;-1.498;2024-01-07T06:45:02;14.20;;;6.45;;
41897;SDS011;27576;53.366;-1.498;2024-01-07T06:47:27;13.70;;;6.68;;
41897;SDS011;27576;53.366;-1.498;2024-01-07T06:49:53;12.45;;;6.22;;
41897;SDS011;27576;53.366;-1.498;2024-01-07T06:52:19;12.65;;;5.85;;
41897;SDS011;27576;53.366;-1.498;2024-01-07T06:54:46;13.73;;;5.95;;
41897;SDS011;27576;53.366;-1.498;2024-01-07T06:57:11;12.50;;;5.78;;
41897;SDS011;27576;53.366;-1.498;2024-01-07T06:59:36;12.30;;;6.28;;
41897;SDS011;27576;53.366;-1.498;2024-01-07T07:02:02;16.48;;;6.00;;
41897;SDS011;27576;53.366;-1.498;2024-01-07T07:04:27;11.70;;;5.85;;
41897;SDS011;27576;53.366;-1.498;2024-01-07T07:06:53;10.60;;;6.13;;
41897;SDS011;27576;53.366;-1.498;2024-01-07T07:09:18;11.95;;;6.35;;
41897;SDS011;27576;53.366;-1.498;2024-01-07T07:11:44;10.23;;;5.40;;
41897;SDS011;27576;53.366;-1.498;2024-01-07T07:14:09;15.98;;;5.80;;
41897;SDS011;27576;53.366;-1.498;2024-01-07T07:16:35;11.88;;;5.97;;
41897;SDS011;27576;53.366;-1.498;2024-01-07T07:19:00;12.18;;;5.68;;
41897;SDS011;27576;53.366;-1.498;2024-01-07T07:21:26;11.30;;;5.68;;
41897;SDS011;27576;53.366;-1.498;2024-01-07T07:23:52;15.48;;;6.43;;
41897;SDS011;27576;53.366;-1.498;2024-01-07T07:26:18;11.77;;;6.60;;
41897;SDS011;27576;53.366;-1.498;2024-01-07T07:28:43;12.73;;;6.65;;
41897;SDS011;27576;53.366;-1.498;2024-01-07T07:31:10;12.48;;;7.15;;
41897;SDS011;27576;53.366;-1.498;2024-01-07T07:33:38;16.70;;;8.10;;
41897;SDS011;27576;53.366;-1.498;2024-01-07T07:36:04;12.07;;;7.05;;
41897;SDS011;27576;53.366;-1.498;2024-01-07T07:38:30;15.68;;;7.65;;
41897;SDS011;27576;53.366;-1.498;2024-01-07T07:40:55;14.60;;;6.90;;
41897;SDS011;27576;53.366;-1.498;2024-01-07T07:43:20;15.77;;;6.75;;
41897;SDS011;27576;53.366;-1.498;2024-01-07T07:45:46;12.38;;;6.38;;
41897;SDS011;27576;53.366;-1.498;2024-01-07T07:48:12;14.02;;;6.75;;
41897;SDS011;27576;53.366;-1.498;2024-01-07T07:50:37;15.38;;;7.43;;
41897;SDS011;27576;53.366;-1.498;2024-01-07T07:53:03;14.15;;;6.70;;
41897;SDS011;27576;53.366;-1.498;2024-01-07T07:55:28;13.80;;;7.18;;
41897;SDS011;27576;53.366;-1.498;2024-01-07T07:57:54;14.43;;;7.40;;
41897;SDS011;27576;53.366;-1.498;2024-01-07T08:00:19;16.20;;;7.28;;
41897;SDS011;27576;53.366;-1.498;2024-01-07T08:02:45;19.67;;;7.80;;
41897;SDS011;27576;53.366;-1.498;2024-01-07T08:05:10;15.30;;;8.02;;
41897;SDS011;27576;53.366;-1.498;2024-01-07T08:07:36;13.70;;;7.10;;
41897;SDS011;27576;53.366;-1.498;2024-01-07T08:10:01;11.43;;;6.60;;
41897;SDS011;27576;53.366;-1.498;2024-01-07T08:12:26;10.23;;;6.68;;
41897;SDS011;27576;53.366;-1.498;2024-01-07T08:14:52;13.27;;;7.55;;
41897;SDS011;27576;53.366;-1.498;2024-01-07T08:17:17;13.43;;;6.68;;
41897;SDS011;27576;53.366;-1.498;2024-01-07T08:19:43;10.98;;;7.57;;
41897;SDS011;27576;53.366;-1.498;2024-01-07T08:22:08;14.32;;;8.50;;
41897;SDS011;27576;53.366;-1.498;2024-01-07T08:24:34;17.08;;;8.80;;
41897;SDS011;27576;53.366;-1.498;2024-01-07T08:27:00;14.20;;;8.57;;
41897;SDS011;27576;53.366;-1.498;2024-01-07T08:29:27;16.98;;;7.95;;
41897;SDS011;27576;53.366;-1.498;2024-01-07T08:31:53;15.38;;;8.80;;
41897;SDS011;27576;53.366;-1.498;2024-01-07T08:34:18;12.38;;;7.68;;
41897;SDS011;27576;53.366;-1.498;2024-01-07T08:36:44;20.25;;;7.78;;
41897;SDS011;27576;53.366;-1.498;2024-01-07T08:39:09;12.48;;;6.70;;
41897;SDS011;27576;53.366;-1.498;2024-01-07T08:41:36;13.43;;;6.35;;
41897;SDS011;27576;53.366;-1.498;2024-01-07T08:44:01;12.75;;;5.57;;
41897;SDS011;27576;53.366;-1.498;2024-01-07T08:46:27;6.07;;;4.95;;
41897;SDS011;27576;53.366;-1.498;2024-01-07T08:48:52;11.73;;;5.68;;
41897;SDS011;27576;53.366;-1.498;2024-01-07T08:51:18;10.75;;;5.55;;
41897;SDS011;27576;53.366;-1.498;2024-01-07T08:53:43;8.05;;;4.90;;
41897;SDS011;27576;53.366;-1.498;2024-01-07T08:56:09;11.55;;;5.55;;
41897;SDS011;27576;53.366;-1.498;2024-01-07T08:58:34;9.95;;;4.97;;
41897;SDS011;27576;53.366;-1.498;2024-01-07T09:01:00;8.65;;;5.43;;
41897;SDS011;27576;53.366;-1.498;2024-01-07T09:03:25;8.45;;;5.88;;
41897;SDS011;27576;53.366;-1.498;2024-01-07T09:05:50;12.50;;;5.97;;
41897;SDS011;27576;53.366;-1.498;2024-01-07T09:08:16;10.77;;;5.80;;
41897;SDS011;27576;53.366;-1.498;2024-01-07T09:10:41;11.45;;;6.90;;
41897;SDS011;27576;53.366;-1.498;2024-01-07T09:13:07;12.43;;;6.00;;
41897;SDS011;27576;53.366;-1.498;2024-01-07T09:15:32;10.15;;;5.72;;
41897;SDS011;27576;53.366;-1.498;2024-01-07T09:17:58;9.88;;;5.93;;
41897;SDS011;27576;53.366;-1.498;2024-01-07T09:20:23;8.15;;;4.50;;
41897;SDS011;27576;53.366;-1.498;2024-01-07T09:22:49;7.90;;;4.75;;
41897;SDS011;27576;53.366;-1.498;2024-01-07T09:25:14;11.60;;;4.70;;
41897;SDS011;27576;53.366;-1.498;2024-01-07T09:27:40;8.07;;;5.13;;
41897;SDS011;27576;53.366;-1.498;2024-01-07T09:30:06;10.70;;;5.40;;
41897;SDS011;27576;53.366;-1.498;2024-01-07T09:32:35;9.98;;;5.22;;
41897;SDS011;27576;53.366;-1.498;2024-01-07T09:35:00;10.32;;;5.47;;
41897;SDS011;27576;53.366;-1.498;2024-01-07T09:37:26;10.48;;;5.80;;
41897;SDS011;27576;53.366;-1.498;2024-01-07T09:39:51;8.77;;;5.78;;
41897;SDS011;27576;53.366;-1.498;2024-01-07T09:42:17;9.82;;;5.32;;
41897;SDS011;27576;53.366;-1.498;2024-01-07T09:44:44;10.10;;;5.70;;
41897;SDS011;27576;53.366;-1.498;2024-01-07T09:47:11;11.43;;;6.25;;
41897;SDS011;27576;53.366;-1.498;2024-01-07T09:49:37;7.65;;;5.88;;
41897;SDS011;27576;53.366;-1.498;2024-01-07T09:52:07;8.80;;;5.07;;
41897;SDS011;27576;53.366;-1.498;2024-01-07T09:54:37;7.70;;;5.28;;
41897;SDS011;27576;53.366;-1.498;2024-01-07T09:57:04;13.30;;;5.82;;
41897;SDS011;27576;53.366;-1.498;2024-01-07T09:59:33;13.68;;;6.32;;
41897;SDS011;27576;53.366;-1.498;2024-01-07T10:02:00;11.40;;;5.78;;
41897;SDS011;27576;53.366;-1.498;2024-01-07T10:04:26;7.78;;;4.65;;
41897;SDS011;27576;53.366;-1.498;2024-01-07T10:06:58;9.70;;;5.40;;
41897;SDS011;27576;53.366;-1.498;2024-01-07T10:09:24;5.90;;;4.70;;
41897;SDS011;27576;53.366;-1.498;2024-01-07T10:11:54;9.82;;;5.20;;
41897;SDS011;27576;53.366;-1.498;2024-01-07T10:14:20;5.63;;;4.80;;
41897;SDS011;27576;53.366;-1.498;2024-01-07T10:16:51;9.90;;;5.13;;
41897;SDS011;27576;53.366;-1.498;2024-01-07T10:19:22;14.73;;;5.72;;
41897;SDS011;27576;53.366;-1.498;2024-01-07T10:22:09;7.97;;;4.10;;
41897;SDS011;27576;53.366;-1.498;2024-01-07T10:24:38;9.38;;;4.75;;
41897;SDS011;27576;53.366;-1.498;2024-01-07T10:27:04;7.15;;;4.40;;
41897;SDS011;27576;53.366;-1.498;2024-01-07T10:29:30;7.60;;;5.15;;
41897;SDS011;27576;53.366;-1.498;2024-01-07T10:32:00;12.70;;;6.22;;
41897;SDS011;27576;53.366;-1.498;2024-01-07T10:34:35;10.52;;;7.25;;
41897;SDS011;27576;53.366;-1.498;2024-01-07T10:37:01;10.00;;;6.50;;
41897;SDS011;27576;53.366;-1.498;2024-01-07T10:39:28;12.07;;;5.53;;
41897;SDS011;27576;53.366;-1.498;2024-01-07T10:41:57;11.98;;;5.80;;
41897;SDS011;27576;53.366;-1.498;2024-01-07T10:44:24;7.28;;;5.07;;
41897;SDS011;27576;53.366;-1.498;2024-01-07T10:46:53;8.80;;;5.45;;
41897;SDS011;27576;53.366;-1.498;2024-01-07T10:49:20;7.32;;;4.25;;
41897;SDS011;27576;53.366;-1.498;2024-01-07T10:51:50;5.38;;;3.92;;
41897;SDS011;27576;53.366;-1.498;2024-01-07T10:54:28;7.63;;;3.72;;
41897;SDS011;27576;53.366;-1.498;2024-01-07T10:56:55;5.82;;;3.30;;
41897;SDS011;27576;53.366;-1.498;2024-01-07T10:59:23;5.60;;;3.47;;
41897;SDS011;27576;53.366;-1.498;2024-01-07T11:01:51;7.88;;;3.67;;
41897;SDS011;27576;53.366;-1.498;2024-01-07T11:08:02;8.25;;;4.10;;
41897;SDS011;27576;53.366;-1.498;2024-01-07T11:16:03;10.88;;;4.35;;
41897;SDS011;27576;53.366;-1.498;2024-01-07T11:18:29;7.50;;;3.90;;
41897;SDS011;27576;53.366;-1.498;2024-01-07T11:21:02;6.57;;;3.95;;
41897;SDS011;27576;53.366;-1.498;2024-01-07T11:23:34;8.18;;;4.75;;
41897;SDS011;27576;53.366;-1.498;2024-01-07T11:26:07;7.18;;;5.05;;
41897;SDS011;27576;53.366;-1.498;2024-01-07T11:31:21;10.73;;;5.68;;
41897;SDS011;27576;53.366;-1.498;2024-01-07T11:34:59;8.25;;;6.20;;
41897;SDS011;27576;53.366;-1.498;2024-01-07T11:37:11;7.05;;;5.57;;
41897;SDS011;27576;53.366;-1.498;2024-01-07T11:39:38;9.68;;;5.65;;
41897;SDS011;27576;53.366;-1.498;2024-01-07T11:42:10;7.35;;;5.35;;
41897;SDS011;27576;53.366;-1.498;2024-01-07T11:44:48;7.55;;;5.22;;
41897;SDS011;27576;53.366;-1.498;2024-01-07T11:47:16;10.57;;;5.70;;
41897;SDS011;27576;53.366;-1.498;2024-01-07T11:49:43;12.48;;;5.75;;
41897;SDS011;27576;53.366;-1.498;2024-01-07T11:52:10;9.05;;;5.05;;
41897;SDS011;27576;53.366;-1.498;2024-01-07T11:54:36;11.80;;;5.60;;
41897;SDS011;27576;53.366;-1.498;2024-01-07T11:57:06;13.35;;;5.85;;
41897;SDS011;27576;53.366;-1.498;2024-01-07T11:59:35;10.32;;;5.60;;
41897;SDS011;27576;53.366;-1.498;2024-01-07T12:02:01;10.48;;;5.95;;
41897;SDS011;27576;53.366;-1.498;2024-01-07T12:04:29;10.20;;;5.82;;
41897;SDS011;27576;53.366;-1.498;2024-01-07T12:06:55;10.05;;;5.80;;
41897;SDS011;27576;53.366;-1.498;2024-01-07T12:09:21;9.73;;;5.82;;
41897;SDS011;27576;53.366;-1.498;2024-01-07T12:11:46;6.53;;;4.60;;
41897;SDS011;27576;53.366;-1.498;2024-01-07T12:14:12;17.02;;;5.30;;
41897;SDS011;27576;53.366;-1.498;2024-01-07T12:16:39;9.02;;;5.85;;
41897;SDS011;27576;53.366;-1.498;2024-01-07T12:19:04;9.32;;;5.47;;
41897;SDS011;27576;53.366;-1.498;2024-01-07T12:21:30;7.22;;;5.53;;
41897;SDS011;27576;53.366;-1.498;2024-01-07T12:23:55;12.48;;;6.53;;
41897;SDS011;27576;53.366;-1.498;2024-01-07T12:26:25;9.40;;;5.43;;
41897;SDS011;27576;53.366;-1.498;2024-01-07T12:28:54;14.63;;;7.20;;
41897;SDS011;27576;53.366;-1.498;2024-01-07T12:31:22;12.57;;;6.20;;
41897;SDS011;27576;53.366;-1.498;2024-01-07T12:33:48;9.65;;;6.43;;
41897;SDS011;27576;53.366;-1.498;2024-01-07T12:36:14;7.85;;;5.03;;
41897;SDS011;27576;53.366;-1.498;2024-01-07T12:38:40;7.88;;;5.25;;
41897;SDS011;27576;53.366;-1.498;2024-01-07T12:41:06;9.52;;;6.10;;
41897;SDS011;27576;53.366;-1.498;2024-01-07T12:43:31;9.27;;;5.43;;
41897;SDS011;27576;53.366;-1.498;2024-01-07T12:45:57;7.22;;;5.10;;
41897;SDS011;27576;53.366;-1.498;2024-01-07T12:48:26;9.43;;;4.35;;
41897;SDS011;27576;53.366;-1.498;2024-01-07T12:50:51;6.95;;;3.30;;
41897;SDS011;27576;53.366;-1.498;2024-01-07T12:53:17;6.75;;;2.90;;
41897;SDS011;27576;53.366;-1.498;2024-01-07T12:55:43;6.57;;;4.38;;
41897;SDS011;27576;53.366;-1.498;2024-01-07T12:58:08;5.13;;;3.15;;
41897;SDS011;27576;53.366;-1.498;2024-01-07T13:00:34;4.63;;;2.95;;
41897;SDS011;27576;53.366;-1.498;2024-01-07T13:03:00;6.60;;;3.20;;
41897;SDS011;27576;53.366;-1.498;2024-01-07T13:05:25;7.22;;;3.42;;
41897;SDS011;27576;53.366;-1.498;2024-01-07T13:07:51;6.28;;;3.80;;
41897;SDS011;27576;53.366;-1.498;2024-01-07T13:10:16;5.25;;;3.30;;
41897;SDS011;27576;53.366;-1.498;2024-01-07T13:12:42;6.85;;;3.55;;
41897;SDS011;27576;53.366;-1.498;2024-01-07T13:15:08;6.10;;;3.65;;
41897;SDS011;27576;53.366;-1.498;2024-01-07T13:17:33;6.85;;;3.20;;
41897;SDS011;27576;53.366;-1.498;2024-01-07T13:19:59;7.20;;;3.15;;
41897;SDS011;27576;53.366;-1.498;2024-01-07T13:22:25;8.98;;;3.42;;
41897;SDS011;27576;53.366;-1.498;2024-01-07T13:24:51;6.18;;;2.95;;
41897;SDS011;27576;53.366;-1.498;2024-01-07T13:27:19;8.95;;;3.65;;
41897;SDS011;27576;53.366;-1.498;2024-01-07T13:29:44;6.25;;;3.67;;
41897;SDS011;27576;53.366;-1.498;2024-01-07T13:32:13;8.48;;;3.78;;
41897;SDS011;27576;53.366;-1.498;2024-01-07T13:34:47;8.52;;;3.25;;
41897;SDS011;27576;53.366;-1.498;2024-01-07T13:37:13;8.70;;;3.45;;
41897;SDS011;27576;53.366;-1.498;2024-01-07T13:39:38;9.32;;;4.20;;
41897;SDS011;27576;53.366;-1.498;2024-01-07T13:42:04;9.65;;;4.28;;
41897;SDS011;27576;53.366;-1.498;2024-01-07T13:44:30;10.85;;;4.63;;
41897;SDS011;27576;53.366;-1.498;2024-01-07T13:46:55;11.85;;;4.20;;
41897;SDS011;27576;53.366;-1.498;2024-01-07T13:49:21;8.43;;;4.22;;
41897;SDS011;27576;53.366;-1.498;2024-01-07T13:51:46;7.82;;;4.00;;
41897;SDS011;27576;53.366;-1.498;2024-01-07T13:54:12;10.32;;;3.70;;
41897;SDS011;27576;53.366;-1.498;2024-01-07T13:56:48;7.13;;;3.80;;
41897;SDS011;27576;53.366;-1.498;2024-01-07T13:59:15;9.25;;;3.20;;
41897;SDS011;27576;53.366;-1.498;2024-01-07T14:01:42;8.13;;;3.50;;
41897;SDS011;27576;53.366;-1.498;2024-01-07T14:04:08;7.57;;;3.72;;
41897;SDS011;27576;53.366;-1.498;2024-01-07T14:06:33;7.80;;;3.55;;
41897;SDS011;27576;53.366;-1.498;2024-01-07T14:09:00;7.82;;;3.38;;
41897;SDS011;27576;53.366;-1.498;2024-01-07T14:11:25;6.57;;;3.10;;
41897;SDS011;27576;53.366;-1.498;2024-01-07T14:13:53;7.13;;;3.55;;
41897;SDS011;27576;53.366;-1.498;2024-01-07T14:16:18;8.95;;;4.75;;
41897;SDS011;27576;53.366;-1.498;2024-01-07T14:18:44;6.90;;;3.53;;
41897;SDS011;27576;53.366;-1.498;2024-01-07T14:21:09;6.95;;;4.30;;
41897;SDS011;27576;53.366;-1.498;2024-01-07T14:23:35;7.13;;;3.83;;
41897;SDS011;27576;53.366;-1.498;2024-01-07T14:26:01;6.38;;;3.50;;
41897;SDS011;27576;53.366;-1.498;2024-01-07T14:28:27;9.82;;;3.65;;